createdAt,value
2018-08-22T00:01:10.715Z,42.93
2018-08-22T00:03:39.836Z,42.15
2018-08-22T00:06:09.058Z,43.35
2018-08-22T00:08:45.390Z,43.33
2018-08-22T00:11:15.016Z,42.90
2018-08-22T00:13:44.815Z,42.49
2018-08-22T00:16:13.982Z,42.63
2018-08-22T00:18:43.167Z,42.88
2018-08-22T00:21:12.292Z,43.13
2018-08-22T00:23:41.382Z,44.88
2018-08-22T00:26:10.556Z,45.09
2018-08-22T00:28:39.709Z,45.29
2018-08-22T00:31:08.846Z,45.85
2018-08-22T00:33:37.957Z,46.57
2018-08-22T00:36:07.277Z,47.00
2018-08-22T00:38:36.392Z,45.87
2018-08-22T00:41:05.507Z,46.40
2018-08-22T00:43:34.608Z,49.20
2018-08-22T00:46:03.793Z,49.04
2018-08-22T00:48:32.888Z,47.71
2018-08-22T00:51:02.112Z,49.12
2018-08-22T00:53:31.228Z,49.61
2018-08-22T00:56:00.375Z,48.60
2018-08-22T00:58:29.440Z,48.75
2018-08-22T01:00:58.647Z,49.40
2018-08-22T01:03:27.786Z,49.33
2018-08-22T01:05:56.918Z,49.32
2018-08-22T01:08:26.051Z,48.57
2018-08-22T01:10:55.197Z,48.62
2018-08-22T01:13:24.296Z,49.54
2018-08-22T01:15:53.587Z,49.18
2018-08-22T01:18:22.650Z,49.57
2018-08-22T01:20:51.837Z,49.83
2018-08-22T01:23:20.993Z,48.99
2018-08-22T01:25:50.168Z,49.44
2018-08-22T01:28:19.322Z,50.37
2018-08-22T01:30:48.409Z,50.02
2018-08-22T01:33:17.507Z,49.06
2018-08-22T01:35:46.666Z,49.63
2018-08-22T01:38:15.839Z,51.04
2018-08-22T01:40:44.992Z,50.63
2018-08-22T01:43:14.163Z,51.93
2018-08-22T01:45:43.354Z,51.65
2018-08-22T01:48:12.470Z,50.63
2018-08-22T01:50:41.692Z,50.45
2018-08-22T01:53:10.821Z,50.56
2018-08-22T01:55:40.013Z,50.90
2018-08-22T01:58:09.108Z,51.58
2018-08-22T02:00:38.249Z,51.38
2018-08-22T02:03:07.351Z,51.42
2018-08-22T02:05:36.505Z,50.62
2018-08-22T02:08:05.917Z,50.38
2018-08-22T02:10:35.173Z,50.22
2018-08-22T02:13:04.470Z,49.99
2018-08-22T02:15:33.745Z,50.25
2018-08-22T02:18:03.372Z,50.79
2018-08-22T02:20:32.516Z,50.82
2018-08-22T02:23:01.795Z,50.93
2018-08-22T02:25:31.050Z,51.59
2018-08-22T02:28:00.225Z,51.54
2018-08-22T02:30:29.373Z,51.47
2018-08-22T02:32:58.561Z,52.20
2018-08-22T02:35:27.653Z,52.81
2018-08-22T02:37:56.900Z,53.67
2018-08-22T02:40:26.028Z,52.98
2018-08-22T02:42:55.221Z,53.37
2018-08-22T02:45:24.334Z,53.73
2018-08-22T02:47:53.510Z,52.59
2018-08-22T02:50:22.669Z,52.95
2018-08-22T02:52:51.799Z,51.47
2018-08-22T02:55:20.880Z,51.91
2018-08-22T02:57:50.122Z,52.46
2018-08-22T03:00:19.349Z,52.72
2018-08-22T03:02:48.511Z,53.47
2018-08-22T03:05:17.632Z,52.60
2018-08-22T03:07:46.818Z,52.78
2018-08-22T03:10:15.905Z,53.99
2018-08-22T03:12:45.209Z,52.60
2018-08-22T03:15:14.383Z,53.74
2018-08-22T03:17:44.093Z,53.02
2018-08-22T03:20:13.336Z,53.25
2018-08-22T03:22:42.588Z,53.64
2018-08-22T03:25:11.669Z,53.66
2018-08-22T03:27:40.891Z,53.60
2018-08-22T03:30:09.994Z,54.00
2018-08-22T03:32:39.238Z,53.34
2018-08-22T03:35:08.491Z,53.62
2018-08-22T03:37:37.721Z,53.43
2018-08-22T03:40:06.843Z,53.33
2018-08-22T03:42:36.029Z,54.04
2018-08-22T03:45:05.311Z,54.02
2018-08-22T03:47:34.558Z,54.15
2018-08-22T03:50:03.713Z,54.63
2018-08-22T03:52:32.857Z,54.16
2018-08-22T03:55:02.215Z,55.42
2018-08-22T03:57:31.405Z,59.09
2018-08-22T04:00:00.587Z,57.99
2018-08-22T04:02:29.787Z,56.69
2018-08-22T04:04:58.971Z,56.45
2018-08-22T04:07:28.235Z,56.75
2018-08-22T04:09:57.427Z,56.30
2018-08-22T04:12:26.595Z,56.38
2018-08-22T04:14:55.747Z,55.89
2018-08-22T04:17:29.913Z,56.15
2018-08-22T04:19:59.054Z,56.13
2018-08-22T04:22:28.283Z,56.49
2018-08-22T04:24:57.629Z,60.97
2018-08-22T04:27:26.828Z,57.72
2018-08-22T04:29:55.954Z,58.47
2018-08-22T04:32:25.306Z,60.26
2018-08-22T04:34:54.495Z,60.21
2018-08-22T04:37:23.752Z,58.84
2018-08-22T04:39:53.015Z,58.38
2018-08-22T04:42:22.211Z,58.79
2018-08-22T04:44:51.395Z,58.20
2018-08-22T04:47:20.638Z,58.54
2018-08-22T04:49:49.861Z,57.71
2018-08-22T04:52:19.381Z,58.29
2018-08-22T04:54:48.820Z,57.96
2018-08-22T04:57:18.080Z,57.72
2018-08-22T04:59:47.285Z,58.25
2018-08-22T05:02:16.385Z,57.57
2018-08-22T05:04:45.620Z,62.06
2018-08-22T05:07:14.921Z,60.36
2018-08-22T05:09:44.218Z,61.05
2018-08-22T05:12:13.592Z,60.35
2018-08-22T05:14:42.913Z,59.38
2018-08-22T05:17:12.101Z,59.48
2018-08-22T05:19:41.386Z,58.92
2018-08-22T05:22:10.574Z,59.77
2018-08-22T05:24:39.880Z,59.09
2018-08-22T05:27:09.170Z,60.16
2018-08-22T05:29:38.507Z,59.69
2018-08-22T05:32:07.697Z,59.79
2018-08-22T05:34:37.090Z,60.26
2018-08-22T05:37:06.421Z,58.34
2018-08-22T05:39:35.665Z,57.73
2018-08-22T05:42:04.844Z,58.56
2018-08-22T05:44:34.150Z,60.91
2018-08-22T05:47:03.339Z,61.73
2018-08-22T05:49:32.607Z,61.67
2018-08-22T05:52:01.764Z,59.75
2018-08-22T05:54:31.070Z,60.74
2018-08-22T05:57:00.293Z,58.28
2018-08-22T05:59:29.535Z,57.11
2018-08-22T06:01:58.762Z,56.93
2018-08-22T06:04:28.234Z,56.51
2018-08-22T06:06:57.624Z,55.69
2018-08-22T06:09:26.973Z,55.31
2018-08-22T06:11:59.403Z,54.20
2018-08-22T06:14:30.567Z,53.41
2018-08-22T06:17:00.772Z,53.93
2018-08-22T06:19:30.411Z,53.68
2018-08-22T06:22:00.060Z,55.01
2018-08-22T06:24:29.974Z,54.82
2018-08-22T06:26:59.677Z,54.31
2018-08-22T06:29:29.441Z,55.53
2018-08-22T06:31:59.050Z,53.88
2018-08-22T06:34:29.057Z,52.97
2018-08-22T06:36:59.303Z,53.14
2018-08-22T06:39:29.130Z,52.40
2018-08-22T06:41:58.706Z,52.55
2018-08-22T06:44:28.369Z,52.28
2018-08-22T06:46:58.427Z,53.34
2018-08-22T06:49:28.943Z,52.75
2018-08-22T06:52:00.106Z,51.02
2018-08-22T06:54:30.562Z,52.46
2018-08-22T06:57:01.324Z,51.31
2018-08-22T06:59:32.377Z,52.42
2018-08-22T07:02:02.626Z,51.50
2018-08-22T07:04:32.633Z,49.20
2018-08-22T07:07:04.501Z,50.45
2018-08-22T07:09:38.970Z,48.11
2018-08-22T07:12:11.209Z,47.36
2018-08-22T07:14:43.297Z,47.19
2018-08-22T07:17:14.774Z,45.87
2018-08-22T07:19:44.853Z,45.99
2018-08-22T07:22:15.569Z,45.93
2018-08-22T07:24:46.173Z,45.22
2018-08-22T07:27:15.882Z,43.88
2018-08-22T07:29:47.439Z,43.86
2018-08-22T07:32:17.148Z,43.25
2018-08-22T07:35:05.948Z,43.50
2018-08-22T07:37:35.095Z,44.72
2018-08-22T07:40:04.440Z,43.43
2018-08-22T07:42:33.703Z,42.82
2018-08-22T07:45:02.991Z,41.89
2018-08-22T07:47:32.238Z,43.95
2018-08-22T07:50:01.807Z,42.00
2018-08-22T07:52:31.162Z,40.74
2018-08-22T07:55:00.641Z,39.92
2018-08-22T07:57:29.817Z,40.71
2018-08-22T07:59:59.184Z,43.31
2018-08-22T08:02:28.521Z,40.50
2018-08-22T08:04:57.795Z,42.95
2018-08-22T08:07:27.026Z,41.72
2018-08-22T08:09:56.250Z,41.30
2018-08-22T08:12:32.660Z,38.91
2018-08-22T08:15:05.096Z,39.02
2018-08-22T08:17:34.189Z,40.95
2018-08-22T08:20:03.174Z,41.05
2018-08-22T08:22:32.129Z,40.01
2018-08-22T08:25:01.406Z,39.44
2018-08-22T08:27:30.355Z,41.47
2018-08-22T08:29:59.576Z,40.46
2018-08-22T08:32:28.958Z,40.16
2018-08-22T08:34:58.282Z,39.94
2018-08-22T08:37:27.523Z,37.73
2018-08-22T08:39:56.784Z,37.36
2018-08-22T08:42:26.185Z,38.63
2018-08-22T08:44:55.586Z,38.53
2018-08-22T08:47:25.206Z,38.88
2018-08-22T08:49:54.660Z,38.64
2018-08-22T08:52:23.848Z,38.74
2018-08-22T08:54:54.090Z,37.66
2018-08-22T08:57:23.334Z,39.27
2018-08-22T08:59:52.633Z,38.75
2018-08-22T09:02:22.078Z,39.02
2018-08-22T09:04:51.262Z,36.97
2018-08-22T09:07:20.626Z,35.96
2018-08-22T09:09:49.951Z,34.90
2018-08-22T09:12:19.357Z,34.06
2018-08-22T09:14:48.502Z,34.26
2018-08-22T09:17:17.951Z,35.39
2018-08-22T09:19:47.573Z,35.38
2018-08-22T09:22:16.945Z,36.01
2018-08-22T09:24:46.259Z,35.00
2018-08-22T09:27:15.740Z,34.04
2018-08-22T09:29:44.887Z,36.61
2018-08-22T09:32:14.036Z,34.49
2018-08-22T09:34:43.637Z,33.71
2018-08-22T09:37:12.947Z,33.37
2018-08-22T09:39:42.257Z,32.51
2018-08-22T09:42:11.618Z,33.77
2018-08-22T09:44:40.705Z,33.59
2018-08-22T09:47:10.034Z,32.25
2018-08-22T09:49:39.344Z,33.73
2018-08-22T09:52:08.813Z,33.19
2018-08-22T09:54:51.873Z,32.83
2018-08-22T09:57:21.110Z,32.97
2018-08-22T09:59:50.543Z,32.02
2018-08-22T10:02:19.829Z,33.96
2018-08-22T10:04:49.214Z,33.79
2018-08-22T10:07:18.542Z,32.45
2018-08-22T10:09:47.848Z,30.16
2018-08-22T10:12:17.308Z,31.44
2018-08-22T10:14:46.866Z,30.23
2018-08-22T10:17:16.323Z,31.32
2018-08-22T10:19:45.692Z,30.61
2018-08-22T10:22:14.826Z,28.30
2018-08-22T10:24:44.160Z,28.90
2018-08-22T10:27:13.524Z,29.67
2018-08-22T10:29:42.990Z,29.77
2018-08-22T10:32:12.365Z,28.10
2018-08-22T10:34:41.642Z,28.89
2018-08-22T10:37:10.805Z,30.05
2018-08-22T10:39:40.026Z,30.08
2018-08-22T10:42:09.501Z,29.72
2018-08-22T10:44:38.626Z,29.60
2018-08-22T10:47:08.114Z,30.78
2018-08-22T10:49:37.273Z,31.55
2018-08-22T10:52:06.609Z,30.58
2018-08-22T10:54:35.878Z,28.58
2018-08-22T10:57:05.660Z,28.66
2018-08-22T10:59:35.174Z,30.75
2018-08-22T11:02:04.554Z,28.69
2018-08-22T11:04:33.767Z,27.32
2018-08-22T11:07:03.025Z,28.21
2018-08-22T11:09:32.525Z,28.45
2018-08-22T11:12:01.931Z,28.20
2018-08-22T11:14:31.288Z,26.76
2018-08-22T11:17:00.843Z,27.61
2018-08-22T11:19:30.144Z,29.99
2018-08-22T11:22:10.323Z,29.67
2018-08-22T11:24:50.557Z,27.63
2018-08-22T11:27:30.817Z,27.85
2018-08-22T11:30:11.172Z,28.32
2018-08-22T11:32:51.427Z,28.18
2018-08-22T11:35:20.143Z,28.15
2018-08-22T11:37:49.699Z,25.88
2018-08-22T11:40:19.132Z,25.66
2018-08-22T11:42:48.632Z,24.06
2018-08-22T11:45:17.989Z,26.21
2018-08-22T11:47:47.188Z,27.16
2018-08-22T11:50:16.487Z,26.50
2018-08-22T11:52:45.950Z,23.93
2018-08-22T11:55:15.381Z,22.89
2018-08-22T11:57:44.889Z,23.24
2018-08-22T12:00:14.150Z,21.85
2018-08-22T12:02:43.471Z,22.16
2018-08-22T12:05:12.860Z,20.25
2018-08-22T12:07:42.358Z,20.56
2018-08-22T12:10:11.654Z,18.82
2018-08-22T12:12:41.010Z,22.32
2018-08-22T12:15:10.541Z,24.51
2018-08-22T12:17:39.770Z,24.19
2018-08-22T12:20:08.917Z,24.83
2018-08-22T12:22:38.194Z,21.45
2018-08-22T12:25:07.509Z,19.81
2018-08-22T12:27:36.888Z,19.51
2018-08-22T12:30:06.407Z,21.00
2018-08-22T12:32:35.764Z,18.63
2018-08-22T12:35:05.013Z,18.12
2018-08-22T12:37:34.403Z,19.14
2018-08-22T12:40:03.936Z,19.61
2018-08-22T12:42:33.284Z,19.52
2018-08-22T12:45:02.564Z,22.28
2018-08-22T12:47:31.963Z,20.39
2018-08-22T12:50:01.256Z,23.19
2018-08-22T12:52:30.586Z,23.90
2018-08-22T12:55:00.282Z,23.56
2018-08-22T12:57:29.545Z,22.01
2018-08-22T12:59:58.801Z,22.12
2018-08-22T13:02:28.235Z,22.78
2018-08-22T13:04:57.216Z,21.99
2018-08-22T13:07:26.241Z,21.68
2018-08-22T13:09:55.184Z,18.74
2018-08-22T13:12:24.209Z,20.39
2018-08-22T13:14:53.475Z,22.37
2018-08-22T13:17:22.762Z,21.85
2018-08-22T13:19:51.985Z,21.00
2018-08-22T13:22:21.271Z,21.73
2018-08-22T13:24:50.621Z,18.26
2018-08-22T13:27:19.572Z,18.76
2018-08-22T13:29:48.875Z,21.38
2018-08-22T13:32:17.822Z,20.98
2018-08-22T13:34:46.811Z,21.90
2018-08-22T13:37:15.787Z,22.50
2018-08-22T13:39:44.955Z,22.53
2018-08-22T13:42:14.306Z,19.95
2018-08-22T13:44:43.841Z,18.64
2018-08-22T13:47:13.259Z,21.14
2018-08-22T13:49:42.576Z,20.00
2018-08-22T13:52:12.002Z,18.88
2018-08-22T13:54:41.258Z,17.15
2018-08-22T13:57:10.565Z,17.32
2018-08-22T13:59:39.780Z,19.87
2018-08-22T14:02:09.153Z,21.19
2018-08-22T14:04:38.138Z,22.29
2018-08-22T14:07:07.126Z,21.43
2018-08-22T14:09:36.122Z,20.88
2018-08-22T14:12:05.033Z,21.54
2018-08-22T14:14:34.106Z,21.73
2018-08-22T14:17:03.093Z,21.38
2018-08-22T14:19:32.064Z,19.64
2018-08-22T14:22:01.062Z,19.66
2018-08-22T14:24:30.078Z,20.10
2018-08-22T14:26:59.093Z,19.88
2018-08-22T14:29:28.069Z,19.85
2018-08-22T14:31:57.181Z,19.95
2018-08-22T14:34:26.723Z,19.86
2018-08-22T14:36:56.177Z,19.78
2018-08-22T14:39:25.381Z,21.28
2018-08-22T14:41:54.562Z,19.51
2018-08-22T14:44:23.881Z,19.50
2018-08-22T14:46:52.915Z,19.74
2018-08-22T14:49:21.965Z,19.94
2018-08-22T14:51:50.923Z,20.89
2018-08-22T14:54:19.937Z,19.84
2018-08-22T14:56:48.914Z,20.93
2018-08-22T14:59:17.930Z,20.57
2018-08-22T15:01:46.964Z,21.98
2018-08-22T15:04:15.952Z,21.17
2018-08-22T15:06:45.140Z,21.74
2018-08-22T15:09:18.475Z,21.11
2018-08-22T15:11:47.673Z,20.96
2018-08-22T15:14:16.678Z,21.72
2018-08-22T15:16:45.661Z,23.71
2018-08-22T15:19:14.682Z,24.90
2018-08-22T15:21:43.766Z,25.62
2018-08-22T15:24:12.802Z,24.79
2018-08-22T15:26:41.941Z,20.98
2018-08-22T15:29:11.014Z,28.33
2018-08-22T15:31:40.067Z,21.72
2018-08-22T15:34:09.093Z,20.00
2018-08-22T15:36:38.356Z,21.97
2018-08-22T15:39:09.497Z,23.23
2018-08-22T15:41:38.569Z,20.31
2018-08-22T15:44:07.637Z,21.80
2018-08-22T15:46:36.651Z,21.31
2018-08-22T15:49:05.608Z,19.99
2018-08-22T15:51:34.626Z,19.64
2018-08-22T15:54:12.978Z,19.93
2018-08-22T15:56:42.628Z,19.13
2018-08-22T15:59:12.836Z,20.86
2018-08-22T16:01:42.361Z,24.77
2018-08-22T16:04:11.422Z,24.42
2018-08-22T16:06:40.510Z,24.04
2018-08-22T16:09:16.043Z,23.00
2018-08-22T16:11:45.215Z,23.71
2018-08-22T16:14:14.302Z,23.27
2018-08-22T16:16:43.320Z,22.97
2018-08-22T16:19:12.386Z,23.14
2018-08-22T16:21:41.324Z,22.10
2018-08-22T16:24:10.422Z,24.46
2018-08-22T16:26:39.383Z,24.81
2018-08-22T16:29:08.501Z,24.22
2018-08-22T16:31:42.610Z,24.83
2018-08-22T16:34:12.290Z,25.36
2018-08-22T16:36:41.372Z,25.95
2018-08-22T16:39:10.925Z,25.77
2018-08-22T16:41:40.182Z,23.68
2018-08-22T16:44:10.155Z,22.84
2018-08-22T16:46:39.123Z,22.87
2018-08-22T16:49:08.090Z,22.93
2018-08-22T16:51:37.149Z,23.07
2018-08-22T16:54:09.132Z,23.07
2018-08-22T16:56:38.525Z,26.11
2018-08-22T16:59:14.193Z,24.06
2018-08-22T17:01:48.189Z,23.75
2018-08-22T17:04:17.284Z,23.43
2018-08-22T17:06:46.473Z,23.93
2018-08-22T17:09:15.478Z,25.39
2018-08-22T17:11:44.804Z,25.92
2018-08-22T17:14:14.058Z,26.70
2018-08-22T17:16:43.623Z,25.94
2018-08-22T17:19:12.867Z,29.28
2018-08-22T17:21:41.985Z,26.10
2018-08-22T17:24:11.233Z,24.16
2018-08-22T17:26:40.833Z,24.71
2018-08-22T17:29:10.209Z,24.85
2018-08-22T17:31:39.561Z,24.90
2018-08-22T17:34:08.490Z,25.10
2018-08-22T17:36:37.538Z,23.38
2018-08-22T17:39:07.820Z,24.07
2018-08-22T17:41:36.805Z,24.24
2018-08-22T17:44:11.567Z,24.82
2018-08-22T17:46:44.840Z,24.98
2018-08-22T17:49:13.808Z,24.53
2018-08-22T17:51:56.009Z,24.81
2018-08-22T17:54:25.447Z,25.72
2018-08-22T17:57:06.059Z,25.85
2018-08-22T17:59:35.466Z,25.87
2018-08-22T18:02:04.588Z,25.31
2018-08-22T18:04:44.843Z,25.52
2018-08-22T18:07:14.413Z,25.50
2018-08-22T18:09:43.635Z,25.38
2018-08-22T18:12:12.644Z,25.78
2018-08-22T18:14:41.628Z,25.43
2018-08-22T18:17:10.654Z,25.81
2018-08-22T18:19:40.152Z,26.50
2018-08-22T18:22:09.788Z,25.94
2018-08-22T18:24:44.292Z,25.84
2018-08-22T18:27:13.396Z,26.24
2018-08-22T18:29:44.875Z,26.49
2018-08-22T18:32:14.460Z,27.57
2018-08-22T18:34:56.448Z,26.58
2018-08-22T18:37:26.354Z,26.73
2018-08-22T18:40:25.007Z,26.53
2018-08-22T18:43:00.924Z,27.05
2018-08-22T18:45:30.273Z,28.38
2018-08-22T18:48:00.774Z,27.68
2018-08-22T18:50:29.757Z,27.81
2018-08-22T18:53:00.067Z,27.80
2018-08-22T18:55:30.453Z,28.57
2018-08-22T18:58:01.174Z,27.97
2018-08-22T19:00:30.218Z,28.48
2018-08-22T19:02:59.640Z,27.75
2018-08-22T19:05:30.907Z,28.38
2018-08-22T19:08:05.238Z,28.67
2018-08-22T19:10:37.211Z,28.02
2018-08-22T19:13:11.329Z,29.08
2018-08-22T19:15:40.280Z,29.34
2018-08-22T19:18:10.299Z,29.28
2018-08-22T19:20:39.394Z,29.77
2018-08-22T19:23:08.369Z,28.85
2018-08-22T19:25:37.441Z,28.89
2018-08-22T19:28:06.463Z,28.57
2018-08-22T19:30:36.559Z,29.09
2018-08-22T19:33:08.615Z,28.98
2018-08-22T19:35:37.992Z,28.82
2018-08-22T19:38:07.851Z,29.25
2018-08-22T19:40:37.513Z,29.66
2018-08-22T19:43:06.462Z,30.86
2018-08-22T19:45:36.698Z,31.36
2018-08-22T19:48:05.782Z,31.08
2018-08-22T19:50:34.872Z,30.95
2018-08-22T19:53:03.832Z,31.53
2018-08-22T19:55:33.473Z,31.36
2018-08-22T19:58:02.515Z,31.81
2018-08-22T20:00:31.553Z,32.00
2018-08-22T20:03:00.503Z,32.16
2018-08-22T20:06:04.494Z,32.89
2018-08-22T20:08:37.769Z,32.82
2018-08-22T20:11:07.273Z,32.51
2018-08-22T20:13:49.356Z,33.55
2018-08-22T20:16:19.617Z,34.08
2018-08-22T20:18:55.325Z,34.14
2018-08-22T20:21:40.437Z,34.29
2018-08-22T20:24:11.139Z,34.54
2018-08-22T20:26:49.527Z,34.46
2018-08-22T20:29:18.422Z,34.91
2018-08-22T20:31:47.475Z,35.29
2018-08-22T20:34:16.949Z,35.27
2018-08-22T20:36:47.657Z,34.97
2018-08-22T20:39:16.777Z,36.06
2018-08-22T20:41:46.004Z,35.57
2018-08-22T20:44:17.427Z,35.42
2018-08-22T20:46:47.626Z,36.21
2018-08-22T20:49:18.831Z,36.42
2018-08-22T20:51:48.107Z,36.16
2018-08-22T20:54:22.607Z,36.70
2018-08-22T20:56:56.746Z,36.57
2018-08-22T20:59:25.834Z,36.37
2018-08-22T21:02:06.223Z,36.87
2018-08-22T21:04:36.154Z,37.68
2018-08-22T21:07:05.542Z,37.64
2018-08-22T21:09:34.534Z,37.72
2018-08-22T21:12:04.881Z,37.69
2018-08-22T21:14:33.863Z,38.00
2018-08-22T21:17:02.861Z,38.11
2018-08-22T21:19:31.825Z,37.86
2018-08-22T21:22:00.849Z,38.50
2018-08-22T21:24:29.842Z,38.59
2018-08-22T21:26:58.835Z,38.68
2018-08-22T21:29:27.858Z,38.54
2018-08-22T21:31:56.874Z,38.60
2018-08-22T21:34:25.953Z,38.99
2018-08-22T21:36:54.986Z,39.16
2018-08-22T21:39:27.155Z,39.40
2018-08-22T21:41:56.292Z,42.23
2018-08-22T21:44:25.413Z,40.85
2018-08-22T21:47:00.877Z,39.79
2018-08-22T21:49:30.512Z,39.98
2018-08-22T21:52:01.014Z,39.82
2018-08-22T21:54:30.050Z,39.93
2018-08-22T21:56:59.101Z,40.84
2018-08-22T21:59:28.202Z,40.53
2018-08-22T22:02:02.288Z,40.30
2018-08-22T22:04:33.835Z,40.71
2018-08-22T22:07:03.899Z,41.19
2018-08-22T22:09:32.845Z,40.45
2018-08-22T22:12:02.512Z,40.77
2018-08-22T22:14:32.554Z,41.19
2018-08-22T22:17:02.615Z,41.24
2018-08-22T22:19:33.707Z,42.18
2018-08-22T22:22:03.428Z,41.39
2018-08-22T22:24:32.505Z,41.25
2018-08-22T22:27:01.454Z,42.02
2018-08-22T22:29:31.987Z,42.26
2018-08-22T22:32:00.930Z,42.32
2018-08-22T22:34:30.026Z,41.67
2018-08-22T22:36:58.994Z,42.74
2018-08-22T22:39:43.847Z,42.01
2018-08-22T22:42:20.781Z,42.89
2018-08-22T22:44:51.058Z,42.58
2018-08-22T22:47:25.249Z,43.54
2018-08-22T22:49:54.345Z,42.98
2018-08-22T22:52:30.320Z,43.40
2018-08-22T22:55:00.498Z,43.85
2018-08-22T22:57:31.221Z,43.61
2018-08-22T23:00:00.725Z,43.84
2018-08-22T23:02:30.253Z,44.03
2018-08-22T23:04:59.979Z,43.98
2018-08-22T23:07:34.314Z,44.26
2018-08-22T23:10:05.436Z,44.50
2018-08-22T23:12:40.980Z,43.78
2018-08-22T23:15:12.461Z,44.14
2018-08-22T23:17:41.862Z,44.41
2018-08-22T23:20:44.455Z,44.29
2018-08-22T23:23:27.471Z,44.41
2018-08-22T23:25:58.966Z,44.69
2018-08-22T23:28:28.149Z,44.38
2018-08-22T23:30:57.140Z,44.66
2018-08-22T23:33:26.094Z,45.09
2018-08-22T23:35:55.102Z,44.82
2018-08-22T23:38:30.674Z,44.43
2018-08-22T23:41:00.273Z,44.63
2018-08-22T23:43:39.038Z,45.01
2018-08-22T23:46:09.144Z,45.12
2018-08-22T23:48:38.441Z,45.43
2018-08-22T23:51:11.237Z,45.24
2018-08-22T23:53:45.677Z,45.47
2018-08-22T23:56:24.850Z,45.03
2018-08-22T23:58:54.753Z,45.87
